KDLF/DLF METAR and TAF weather

Enter ICAO airport designator
Station Type Date Time Source
KDLF METAR 2018/10/21 04:56 UTC NOAA

KDLF 210456Z AUTO 31007KT 10SM BKN095 OVC170 M A3030 RMK AO2 SLPNO ALSTG ESTMD $


Station Type Date Time Source
KDLF Decoded METAR 2018/10/21 04:56 UTC NOAA

Laughlin, Laughlin Air Force Base Auxiliary Airfield, TX, United States (KDLF) 29-07-00N 100-28-00W 294M
Oct 21, 2018 - 12:56 AM EDT / 2018.10.21 0456 UTC
Wind: from the NW (310 degrees) at 8 MPH (7 KT):0
Visibility: 10 mile(s):0
Sky conditions: overcast
Pressure (altimeter): 30.3 in. Hg (1026 hPa)
ob: KDLF 210456Z AUTO 31007KT 10SM BKN095 OVC170 M A3030 RMK AO2 SLPNO ALSTG ESTMD
cycle: 5

Station Type Date Time Source
KDLF TAF 2018/10/20 00:19 UTC NOAA

TAF
AMD KDLF 200001Z 2000/2024 31006KT 9999 BKN010 OVC015 QNH3011INS
BECMG 2001/2002 31006KT 9999 BKN007 OVC015 QNH3012INS
BECMG 2012/2013 35009KT 8000 -SHRA BKN010 OVC030 QNH3014INS TX18/2000Z TN14/2012Z LAST NO
AMDS AFT 2000 NEXT 2118


Example: see airport list